createdAt,value
2018-03-17T00:00:14.135Z,23.5
2018-03-17T00:10:13.365Z,23.9
2018-03-17T00:20:12.548Z,23.7
2018-03-17T00:30:11.759Z,23.6
2018-03-17T00:40:10.957Z,23.9
2018-03-17T00:50:10.166Z,23.6
2018-03-17T01:00:09.376Z,23.9
2018-03-17T01:10:08.589Z,23.6
2018-03-17T01:20:07.817Z,23.9
2018-03-17T01:30:06.992Z,23.5
2018-03-17T01:40:06.202Z,24.1
2018-03-17T01:50:05.439Z,23.8
2018-03-17T02:00:04.615Z,23.7
2018-03-17T02:10:03.953Z,23.9
2018-03-17T02:20:03.311Z,23.6
2018-03-17T02:30:02.240Z,23.8
2018-03-17T02:40:01.773Z,23.6
2018-03-17T02:50:00.652Z,23.9
2018-03-17T02:59:59.890Z,23.6
2018-03-17T03:09:59.086Z,23.7
2018-03-17T03:19:58.272Z,24
2018-03-17T03:29:57.569Z,23.6
2018-03-17T03:39:56.685Z,23.7
2018-03-17T03:49:55.926Z,24.1
2018-03-17T03:59:55.150Z,23.4
2018-03-17T04:09:54.313Z,24.1
2018-03-17T04:19:53.514Z,24.1
2018-03-17T04:29:52.720Z,23.4
2018-03-17T04:39:51.958Z,23.6
2018-03-17T04:49:51.153Z,24
2018-03-17T04:59:50.349Z,23.7
2018-03-17T05:09:49.546Z,23.8
2018-03-17T05:19:48.772Z,23.4
2018-03-17T05:29:47.999Z,23.3
2018-03-17T05:39:47.184Z,23.5
2018-03-17T05:49:46.384Z,24.2
2018-03-17T05:59:45.585Z,24
2018-03-17T06:09:44.789Z,23.8
2018-03-17T06:19:44.130Z,24.3
2018-03-17T06:29:43.209Z,23.8
2018-03-17T06:39:42.496Z,24.1
2018-03-17T06:49:41.617Z,24.1
2018-03-17T06:59:40.830Z,23.9
2018-03-17T07:09:40.049Z,24.2
2018-03-17T07:19:39.319Z,24.4
2018-03-17T07:29:38.461Z,24.6
2018-03-17T07:39:37.664Z,24.8
2018-03-17T07:49:36.936Z,24.9
2018-03-17T07:59:36.066Z,24.9
2018-03-17T08:09:35.550Z,24.9
2018-03-17T08:19:34.506Z,25.2
2018-03-17T08:29:33.687Z,25.2
2018-03-17T08:39:32.892Z,25.3
2018-03-17T08:49:32.236Z,25.6
2018-03-17T08:59:31.439Z,25.6
2018-03-17T09:09:30.831Z,25.7
2018-03-17T09:19:29.855Z,26
2018-03-17T09:29:29.060Z,26
2018-03-17T09:39:28.138Z,25.5
2018-03-17T09:49:27.649Z,25.8
2018-03-17T09:59:26.634Z,26.1
2018-03-17T10:09:25.801Z,25.9
2018-03-17T10:19:25.095Z,26.6
2018-03-17T10:29:24.216Z,27
2018-03-17T10:39:23.391Z,26.9
2018-03-17T10:49:22.605Z,26.7
2018-03-17T10:59:21.852Z,26.4
2018-03-17T11:09:21.101Z,26.3
2018-03-17T11:19:20.336Z,26.8
2018-03-17T11:29:19.581Z,26.7
2018-03-17T11:39:18.684Z,26.4
2018-03-17T11:49:17.926Z,26.1
2018-03-17T11:59:17.475Z,26.2
2018-03-17T12:09:16.427Z,26.6
2018-03-17T12:19:15.661Z,26.8
2018-03-17T12:29:14.740Z,26.4
2018-03-17T12:39:13.949Z,26.6
2018-03-17T12:49:13.220Z,26.7
2018-03-17T12:59:12.377Z,26.5
2018-03-17T13:09:11.709Z,26.1
2018-03-17T13:19:10.802Z,26.3
2018-03-17T13:29:10.001Z,26.3
2018-03-17T13:39:09.208Z,26
2018-03-17T13:49:08.579Z,25.9
2018-03-17T13:59:07.660Z,26.3
2018-03-17T14:09:06.842Z,26.4
2018-03-17T14:19:06.209Z,26.4
2018-03-17T14:29:05.629Z,25.5
2018-03-17T14:39:04.470Z,25.8
2018-03-17T14:49:03.688Z,25.8
2018-03-17T14:59:02.948Z,25.9
2018-03-17T15:09:02.400Z,26.1
2018-03-17T15:19:01.348Z,25.8
2018-03-17T15:29:00.548Z,25.7
2018-03-17T15:38:59.728Z,25.4
2018-03-17T15:48:58.985Z,25.2
2018-03-17T15:58:58.174Z,25.3
2018-03-17T16:08:57.363Z,25.3
2018-03-17T16:18:56.696Z,25.2
2018-03-17T16:28:56.080Z,25.2
2018-03-17T16:38:54.993Z,25.1
2018-03-17T16:48:54.241Z,25.3
2018-03-17T16:58:53.397Z,24.7
2018-03-17T17:08:52.632Z,24.8
2018-03-17T17:18:51.948Z,24.9
2018-03-17T17:28:51.141Z,25.2
2018-03-17T17:38:50.372Z,25
2018-03-17T17:48:49.441Z,24.9
2018-03-17T17:58:48.997Z,24.9
2018-03-17T18:08:47.888Z,24.9
2018-03-17T18:18:47.066Z,25.3
2018-03-17T18:28:46.362Z,25.1
2018-03-17T18:38:45.767Z,25.3
2018-03-17T18:48:44.901Z,25.1
2018-03-17T18:58:43.908Z,24.8
2018-03-17T19:08:43.176Z,24.8
2018-03-17T19:18:42.362Z,25.1
2018-03-17T19:28:41.587Z,25.3
2018-03-17T19:38:40.798Z,25
2018-03-17T19:48:40.242Z,24.9
2018-03-17T19:58:39.517Z,24.6
2018-03-17T20:08:38.409Z,24.8
2018-03-17T20:18:37.907Z,25
2018-03-17T20:28:36.800Z,24.9
2018-03-17T20:38:36.071Z,25.1
2018-03-17T20:48:35.259Z,25.1
2018-03-17T20:58:34.457Z,24.6
2018-03-17T21:08:33.665Z,24.7
2018-03-17T21:18:32.844Z,24.7
2018-03-17T21:28:32.058Z,24.8
2018-03-17T21:38:31.343Z,24.9
2018-03-17T21:48:30.494Z,24.9
2018-03-17T21:58:29.710Z,24.8
2018-03-17T22:08:28.968Z,24.6
2018-03-17T22:18:28.283Z,24.7
2018-03-17T22:28:27.305Z,25.1
2018-03-17T22:38:26.575Z,25.1
2018-03-17T22:48:25.753Z,25.2
2018-03-17T22:58:25.049Z,24.9
2018-03-17T23:08:24.420Z,25.1
2018-03-17T23:18:23.349Z,25.1
2018-03-17T23:28:22.640Z,25
2018-03-17T23:38:21.796Z,24.7
2018-03-17T23:48:20.976Z,24.9
2018-03-17T23:58:20.242Z,24.9
